createdAt,value
2018-12-26T00:01:06.989Z,17.72
2018-12-26T00:03:53.705Z,17.73
2018-12-26T00:06:20.899Z,17.73
2018-12-26T00:08:48.238Z,17.73
2018-12-26T00:11:34.859Z,17.70
2018-12-26T00:14:02.393Z,17.70
2018-12-26T00:16:29.657Z,17.70
2018-12-26T00:18:56.870Z,17.70
2018-12-26T00:21:24.047Z,17.77
2018-12-26T00:23:51.307Z,17.75
2018-12-26T00:26:18.568Z,17.73
2018-12-26T00:28:45.783Z,17.70
2018-12-26T00:31:12.990Z,17.72
2018-12-26T00:33:59.690Z,17.71
2018-12-26T00:36:46.326Z,17.74
2018-12-26T00:39:13.600Z,17.74
2018-12-26T00:42:39.131Z,17.72
2018-12-26T00:45:06.685Z,17.72
2018-12-26T00:47:53.336Z,17.69
2018-12-26T00:50:39.988Z,17.63
2018-12-26T00:53:14.182Z,17.63
2018-12-26T00:56:00.825Z,17.67
2018-12-26T00:58:28.027Z,17.67
2018-12-26T01:00:55.293Z,17.62
2018-12-26T01:03:22.470Z,17.62
2018-12-26T01:06:09.142Z,17.59
2018-12-26T01:08:36.318Z,17.59
2018-12-26T01:11:03.596Z,17.58
2018-12-26T01:13:30.816Z,17.56
2018-12-26T01:16:17.462Z,17.55
2018-12-26T01:18:44.719Z,17.58
2018-12-26T01:21:31.369Z,17.56
2018-12-26T01:23:58.571Z,17.56
2018-12-26T01:26:45.219Z,17.57
2018-12-26T01:29:12.428Z,17.57
2018-12-26T01:31:59.071Z,17.57
2018-12-26T01:34:26.249Z,17.57
2018-12-26T01:36:53.491Z,17.58
2018-12-26T01:39:40.129Z,17.56
2018-12-26T01:42:26.835Z,17.55
2018-12-26T01:45:06.710Z,17.56
2018-12-26T01:47:46.815Z,17.60
2018-12-26T01:50:14.049Z,17.60
2018-12-26T01:52:41.220Z,17.61
2018-12-26T01:55:27.866Z,17.55
2018-12-26T01:58:14.507Z,17.60
2018-12-26T02:00:41.748Z,17.60
2018-12-26T02:03:28.399Z,17.58
2018-12-26T02:06:15.050Z,17.61
2018-12-26T02:08:42.243Z,17.61
2018-12-26T02:11:09.468Z,17.60
2018-12-26T02:13:56.186Z,17.57
2018-12-26T02:16:23.395Z,17.57
2018-12-26T02:18:50.586Z,17.61
2018-12-26T02:21:17.910Z,17.61
2018-12-26T02:24:04.510Z,17.57
2018-12-26T02:26:51.149Z,17.58
2018-12-26T02:29:37.749Z,17.51
2018-12-26T02:32:04.951Z,17.51
2018-12-26T02:34:51.540Z,17.54
2018-12-26T02:37:18.895Z,17.54
2018-12-26T02:39:46.100Z,17.54
2018-12-26T02:42:32.788Z,17.53
2018-12-26T02:45:12.294Z,17.51
2018-12-26T02:47:39.506Z,17.51
2018-12-26T02:50:26.194Z,17.50
2018-12-26T02:52:53.421Z,17.50
2018-12-26T02:55:20.650Z,17.57
2018-12-26T02:57:47.907Z,17.58
2018-12-26T03:00:34.501Z,17.55
2018-12-26T03:03:01.769Z,17.55
2018-12-26T03:05:28.962Z,17.56
2018-12-26T03:08:15.660Z,17.54
2018-12-26T03:11:02.261Z,17.54
2018-12-26T03:13:29.545Z,17.54
2018-12-26T03:16:16.161Z,17.50
2018-12-26T03:18:43.378Z,17.50
2018-12-26T03:21:29.979Z,17.56
2018-12-26T03:23:57.196Z,17.56
2018-12-26T03:26:24.417Z,17.53
2018-12-26T03:29:11.083Z,17.55
2018-12-26T03:31:38.305Z,17.55
2018-12-26T03:34:05.585Z,17.54
2018-12-26T03:36:52.202Z,17.54
2018-12-26T03:39:38.893Z,17.54
2018-12-26T03:42:06.171Z,17.56
2018-12-26T03:44:52.918Z,17.49
2018-12-26T03:47:20.170Z,17.49
2018-12-26T03:49:47.360Z,17.51
2018-12-26T03:52:14.539Z,17.55
2018-12-26T03:54:41.742Z,17.53
2018-12-26T03:57:28.376Z,17.49
2018-12-26T03:59:55.590Z,17.49
2018-12-26T04:02:42.215Z,17.52
2018-12-26T04:05:09.367Z,17.52
2018-12-26T04:07:36.590Z,17.52
2018-12-26T04:10:03.895Z,17.48
2018-12-26T04:12:31.116Z,17.47
2018-12-26T04:15:17.722Z,17.40
2018-12-26T04:18:04.363Z,17.44
2018-12-26T04:20:31.558Z,17.43
2018-12-26T04:23:18.186Z,17.47
2018-12-26T04:25:45.427Z,17.47
2018-12-26T04:28:32.091Z,17.48
2018-12-26T04:30:59.312Z,17.48
2018-12-26T04:33:26.505Z,17.52
2018-12-26T04:35:53.730Z,17.54
2018-12-26T04:38:20.925Z,17.58
2018-12-26T04:40:48.162Z,17.55
2018-12-26T04:43:15.393Z,17.66
2018-12-26T04:45:55.018Z,17.63
2018-12-26T04:48:22.257Z,17.63
2018-12-26T04:51:08.902Z,17.72
2018-12-26T04:53:36.092Z,17.72
2018-12-26T04:56:03.443Z,17.71
2018-12-26T04:58:30.647Z,17.72
2018-12-26T05:00:57.846Z,17.77
2018-12-26T05:03:25.055Z,17.79
2018-12-26T05:05:52.227Z,17.81
2018-12-26T05:08:19.458Z,17.79
2018-12-26T05:10:46.964Z,17.80
2018-12-26T05:13:14.200Z,17.81
2018-12-26T05:16:00.847Z,17.86
2018-12-26T05:18:28.084Z,17.86
2018-12-26T05:20:55.253Z,17.84
2018-12-26T05:23:22.505Z,17.86
2018-12-26T05:25:49.738Z,17.89
2018-12-26T05:28:36.393Z,17.89
2018-12-26T05:31:03.648Z,17.89
2018-12-26T05:33:30.876Z,17.87
2018-12-26T05:35:58.095Z,17.89
2018-12-26T05:38:44.732Z,17.86
2018-12-26T05:41:11.983Z,17.86
2018-12-26T05:43:39.174Z,17.92
2018-12-26T05:46:19.208Z,17.94
2018-12-26T05:48:46.453Z,17.94
2018-12-26T05:51:13.674Z,18.00
2018-12-26T05:53:40.917Z,18.00
2018-12-26T05:56:08.144Z,18.00
2018-12-26T05:58:35.386Z,18.03
2018-12-26T06:01:02.573Z,18.03
2018-12-26T06:03:29.799Z,18.03
2018-12-26T06:05:57.013Z,18.03
2018-12-26T06:08:24.187Z,18.02
2018-12-26T06:10:51.468Z,18.08
2018-12-26T06:13:18.713Z,18.06
2018-12-26T06:15:45.958Z,18.10
2018-12-26T06:18:13.140Z,18.12
2018-12-26T06:20:40.357Z,18.08
2018-12-26T06:23:07.708Z,18.06
2018-12-26T06:25:34.962Z,18.06
2018-12-26T06:28:02.232Z,18.08
2018-12-26T06:30:29.439Z,18.09
2018-12-26T06:32:56.659Z,18.12
2018-12-26T06:35:23.890Z,18.09
2018-12-26T06:37:51.182Z,18.08
2018-12-26T06:40:18.435Z,18.11
2018-12-26T06:42:45.625Z,18.14
2018-12-26T06:45:12.896Z,18.14
2018-12-26T06:47:40.125Z,18.06
2018-12-26T06:50:07.355Z,18.06
2018-12-26T06:52:34.609Z,18.11
2018-12-26T06:55:01.821Z,18.12
2018-12-26T06:57:29.035Z,18.14
2018-12-26T06:59:56.254Z,18.16
2018-12-26T07:02:23.485Z,18.17
2018-12-26T07:04:50.693Z,18.15
2018-12-26T07:07:17.937Z,18.18
2018-12-26T07:09:45.156Z,18.19
2018-12-26T07:12:12.490Z,18.18
2018-12-26T07:14:39.717Z,18.18
2018-12-26T07:17:06.983Z,18.19
2018-12-26T07:19:34.198Z,18.19
2018-12-26T07:22:01.412Z,18.20
2018-12-26T07:24:28.633Z,18.19
2018-12-26T07:26:55.847Z,18.22
2018-12-26T07:29:23.121Z,18.20
2018-12-26T07:31:50.331Z,18.21
2018-12-26T07:34:17.560Z,18.24
2018-12-26T07:36:44.788Z,18.21
2018-12-26T07:39:12.037Z,18.22
2018-12-26T07:41:39.281Z,18.21
2018-12-26T07:44:06.498Z,18.23
2018-12-26T07:46:33.760Z,18.24
2018-12-26T07:49:00.968Z,18.25
2018-12-26T07:51:28.289Z,18.18
2018-12-26T07:53:55.494Z,18.29
2018-12-26T07:56:22.800Z,18.28
2018-12-26T07:58:49.987Z,18.31
2018-12-26T08:01:17.153Z,18.31
2018-12-26T08:03:44.365Z,18.32
2018-12-26T08:06:11.533Z,18.30
2018-12-26T08:08:38.774Z,18.30
2018-12-26T08:11:05.960Z,18.33
2018-12-26T08:13:52.680Z,18.34
2018-12-26T08:16:19.911Z,18.34
2018-12-26T08:18:47.136Z,18.35
2018-12-26T08:21:14.385Z,18.34
2018-12-26T08:23:41.636Z,18.32
2018-12-26T08:26:08.854Z,18.34
2018-12-26T08:28:36.248Z,18.32
2018-12-26T08:31:03.499Z,18.34
2018-12-26T08:33:30.732Z,18.38
2018-12-26T08:35:58.002Z,18.38
2018-12-26T08:38:25.231Z,18.41
2018-12-26T08:40:52.469Z,18.40
2018-12-26T08:43:19.707Z,18.40
2018-12-26T08:45:46.994Z,18.40
2018-12-26T08:48:14.253Z,18.40
2018-12-26T08:50:41.498Z,18.40
2018-12-26T08:53:08.704Z,18.41
2018-12-26T08:55:35.955Z,18.41
2018-12-26T08:58:03.190Z,18.42
2018-12-26T09:00:30.423Z,18.42
2018-12-26T09:03:17.056Z,18.42
2018-12-26T09:05:44.265Z,18.42
2018-12-26T09:08:11.546Z,18.44
2018-12-26T09:10:38.759Z,18.45
2018-12-26T09:13:06.020Z,18.47
2018-12-26T09:15:52.645Z,18.48
2018-12-26T09:18:19.892Z,18.48
2018-12-26T09:20:47.089Z,18.48
2018-12-26T09:23:14.298Z,18.50
2018-12-26T09:25:44.097Z,18.51
2018-12-26T09:28:11.369Z,18.52
2018-12-26T09:30:38.574Z,18.52
2018-12-26T09:33:05.885Z,18.53
2018-12-26T09:35:33.135Z,18.53
2018-12-26T09:38:00.351Z,18.55
2018-12-26T09:40:27.567Z,18.56
2018-12-26T09:42:54.728Z,18.57
2018-12-26T09:45:21.972Z,18.56
2018-12-26T09:47:49.213Z,18.58
2018-12-26T09:50:16.437Z,18.57
2018-12-26T09:52:43.686Z,18.57
2018-12-26T09:55:10.884Z,18.56
2018-12-26T09:57:38.143Z,18.53
2018-12-26T10:00:06.544Z,18.56
2018-12-26T10:02:33.809Z,18.56
2018-12-26T10:05:01.029Z,18.56
2018-12-26T10:07:28.260Z,18.56
2018-12-26T10:09:55.449Z,18.58
2018-12-26T10:12:22.650Z,18.61
2018-12-26T10:14:49.906Z,18.60
2018-12-26T10:17:17.120Z,18.60
2018-12-26T10:19:44.377Z,18.58
2018-12-26T10:22:11.564Z,18.58
2018-12-26T10:24:38.797Z,18.59
2018-12-26T10:27:06.038Z,18.63
2018-12-26T10:29:33.301Z,18.62
2018-12-26T10:32:00.550Z,18.63
2018-12-26T10:34:27.761Z,18.62
2018-12-26T10:36:55.006Z,18.62
2018-12-26T10:39:22.203Z,18.62
2018-12-26T10:41:49.457Z,18.63
2018-12-26T10:44:16.654Z,18.62
2018-12-26T10:46:43.926Z,18.62
2018-12-26T10:49:11.101Z,18.64
2018-12-26T10:51:38.330Z,18.63
2018-12-26T10:54:05.550Z,18.64
2018-12-26T10:56:32.778Z,18.65
2018-12-26T10:59:00.225Z,18.64
2018-12-26T11:01:27.437Z,18.65
2018-12-26T11:03:54.704Z,18.62
2018-12-26T11:06:21.932Z,18.62
2018-12-26T11:09:08.695Z,18.62
2018-12-26T11:11:35.911Z,18.62
2018-12-26T11:14:03.090Z,18.63
2018-12-26T11:16:30.441Z,18.64
2018-12-26T11:18:57.647Z,18.64
2018-12-26T11:21:24.893Z,18.66
2018-12-26T11:23:52.178Z,18.68
2018-12-26T11:26:19.413Z,18.68
2018-12-26T11:28:46.750Z,18.67
2018-12-26T11:31:13.991Z,18.68
2018-12-26T11:33:41.240Z,18.66
2018-12-26T11:36:08.494Z,18.66
2018-12-26T11:38:35.689Z,18.65
2018-12-26T11:41:02.904Z,18.68
2018-12-26T11:43:30.134Z,18.67
2018-12-26T11:45:57.376Z,18.67
2018-12-26T11:48:24.594Z,18.67
2018-12-26T11:50:51.789Z,18.67
2018-12-26T11:53:19.018Z,18.69
2018-12-26T11:55:46.193Z,18.70
2018-12-26T11:58:13.432Z,18.71
2018-12-26T12:00:40.656Z,18.68
2018-12-26T12:03:07.964Z,18.69
2018-12-26T12:05:35.222Z,18.70
2018-12-26T12:08:02.459Z,18.70
2018-12-26T12:10:29.745Z,18.72
2018-12-26T12:12:58.721Z,18.71
2018-12-26T12:15:26.048Z,18.74
2018-12-26T12:21:01.334Z,18.72
2018-12-26T12:23:28.663Z,18.74
2018-12-26T12:25:55.852Z,18.76
2018-12-26T12:28:23.087Z,18.75
2018-12-26T12:30:50.300Z,18.75
2018-12-26T12:33:17.512Z,18.76
2018-12-26T12:35:44.714Z,18.77
2018-12-26T12:38:11.943Z,18.80
2018-12-26T12:40:39.135Z,18.80
2018-12-26T12:43:06.546Z,18.78
2018-12-26T12:45:33.754Z,18.78
2018-12-26T12:48:00.942Z,18.79
2018-12-26T12:50:28.199Z,18.79
2018-12-26T12:52:55.395Z,18.79
2018-12-26T12:55:22.669Z,18.78
2018-12-26T12:57:49.895Z,18.78
2018-12-26T13:00:17.120Z,18.76
2018-12-26T13:02:44.452Z,18.76
2018-12-26T13:05:11.709Z,18.76
2018-12-26T13:07:38.994Z,18.78
2018-12-26T13:10:06.302Z,18.77
2018-12-26T13:12:33.556Z,18.75
2018-12-26T13:15:00.793Z,18.74
2018-12-26T13:17:28.019Z,18.74
2018-12-26T13:19:55.236Z,18.74
2018-12-26T13:22:22.472Z,18.73
2018-12-26T13:24:49.757Z,18.75
2018-12-26T13:27:16.991Z,18.74
2018-12-26T13:29:44.276Z,18.77
2018-12-26T13:32:11.501Z,18.74
2018-12-26T13:34:59.987Z,18.77
2018-12-26T13:37:27.248Z,18.76
2018-12-26T13:39:54.479Z,18.73
2018-12-26T13:42:21.676Z,18.72
2018-12-26T13:44:48.961Z,18.72
2018-12-26T13:47:16.166Z,18.73
2018-12-26T13:49:43.425Z,18.72
2018-12-26T13:52:10.671Z,18.71
2018-12-26T13:54:37.902Z,18.71
2018-12-26T13:57:05.164Z,18.71
2018-12-26T13:59:32.392Z,18.71
2018-12-26T14:01:59.617Z,18.71
2018-12-26T14:04:27.010Z,18.72
2018-12-26T14:06:54.245Z,18.73
2018-12-26T14:09:21.444Z,18.70
2018-12-26T14:11:48.704Z,18.70
2018-12-26T14:14:15.981Z,18.71
2018-12-26T14:16:43.210Z,18.69
2018-12-26T14:19:10.439Z,18.70
2018-12-26T14:21:37.698Z,18.71
2018-12-26T14:24:04.917Z,18.72
2018-12-26T14:26:32.164Z,18.72
2018-12-26T14:28:59.367Z,18.71
2018-12-26T14:31:26.568Z,18.69
2018-12-26T14:33:53.839Z,18.72
2018-12-26T14:36:21.058Z,18.73
2018-12-26T14:38:48.260Z,18.71
2018-12-26T14:41:15.537Z,18.74
2018-12-26T14:43:42.797Z,18.74
2018-12-26T14:46:10.087Z,18.73
2018-12-26T14:48:37.277Z,18.73
2018-12-26T14:51:26.461Z,18.75
2018-12-26T14:53:53.103Z,18.75
2018-12-26T14:56:20.273Z,18.74
2018-12-26T14:58:47.642Z,18.72
2018-12-26T15:01:14.853Z,18.72
2018-12-26T15:03:42.381Z,18.73
2018-12-26T15:06:09.728Z,18.74
2018-12-26T15:08:36.909Z,18.77
2018-12-26T15:11:04.675Z,18.77
2018-12-26T15:13:33.202Z,18.77
2018-12-26T15:16:00.464Z,18.76
2018-12-26T15:18:27.628Z,18.76
2018-12-26T15:20:54.905Z,18.76
2018-12-26T15:23:22.114Z,18.75
2018-12-26T15:25:49.324Z,18.75
2018-12-26T15:28:16.549Z,18.74
2018-12-26T15:30:43.805Z,18.76
2018-12-26T15:33:11.147Z,18.77
2018-12-26T15:35:38.430Z,18.76
2018-12-26T15:38:05.643Z,18.75
2018-12-26T15:40:32.905Z,18.74
2018-12-26T15:43:00.190Z,18.76
2018-12-26T15:45:27.565Z,18.76
2018-12-26T15:47:54.866Z,18.76
2018-12-26T15:50:22.118Z,18.73
2018-12-26T15:52:49.385Z,18.71
2018-12-26T15:55:16.592Z,18.71
2018-12-26T15:57:43.925Z,18.71
2018-12-26T16:00:11.110Z,18.74
2018-12-26T16:02:38.324Z,18.72
2018-12-26T16:05:06.598Z,18.72
2018-12-26T16:07:34.008Z,18.72
2018-12-26T16:10:01.229Z,18.73
2018-12-26T16:12:28.466Z,18.74
2018-12-26T16:14:55.758Z,18.75
2018-12-26T16:17:23.153Z,18.76
2018-12-26T16:19:50.353Z,18.75
2018-12-26T16:22:17.614Z,18.75
2018-12-26T16:24:44.824Z,18.74
2018-12-26T16:27:12.052Z,18.72
2018-12-26T16:29:39.283Z,18.72
2018-12-26T16:32:06.513Z,18.73
2018-12-26T16:34:33.724Z,18.73
2018-12-26T16:37:01.039Z,18.73
2018-12-26T16:39:35.680Z,18.73
2018-12-26T16:41:58.467Z,18.75
2018-12-26T16:44:25.805Z,18.74
2018-12-26T16:46:53.077Z,18.73
2018-12-26T16:49:21.518Z,18.72
2018-12-26T16:51:49.596Z,18.74
2018-12-26T16:54:16.796Z,18.75
2018-12-26T16:56:44.069Z,18.74
2018-12-26T16:59:11.347Z,18.74
2018-12-26T17:01:38.590Z,18.72
2018-12-26T17:04:05.994Z,18.72
2018-12-26T17:06:33.206Z,18.75
2018-12-26T17:09:00.479Z,18.75
2018-12-26T17:11:27.882Z,18.73
2018-12-26T17:13:55.181Z,18.72
2018-12-26T17:16:22.415Z,18.72
2018-12-26T17:18:49.681Z,18.71
2018-12-26T17:21:16.941Z,18.73
2018-12-26T17:23:44.179Z,18.74
2018-12-26T17:26:11.503Z,18.71
2018-12-26T17:28:38.784Z,18.66
2018-12-26T17:31:06.032Z,18.71
2018-12-26T17:33:33.388Z,18.72
2018-12-26T17:36:00.654Z,18.73
2018-12-26T17:38:27.863Z,18.73
2018-12-26T17:40:55.100Z,18.70
2018-12-26T17:43:22.283Z,18.70
2018-12-26T17:45:49.537Z,18.70
2018-12-26T17:48:16.753Z,18.71
2018-12-26T17:50:49.072Z,18.72
2018-12-26T17:53:38.169Z,18.69
2018-12-26T17:56:44.323Z,18.70
2018-12-26T17:59:50.322Z,18.70
2018-12-26T18:02:39.300Z,18.73
2018-12-26T18:05:06.725Z,18.72
2018-12-26T18:07:33.908Z,18.70
2018-12-26T18:10:01.134Z,18.70
2018-12-26T18:12:28.388Z,18.69
2018-12-26T18:14:55.580Z,18.69
2018-12-26T18:17:22.829Z,18.69
2018-12-26T18:19:50.046Z,18.69
2018-12-26T18:22:17.366Z,18.69
2018-12-26T18:24:44.597Z,18.67
2018-12-26T18:27:11.839Z,18.65
2018-12-26T18:29:39.181Z,18.66
2018-12-26T18:32:06.359Z,18.66
2018-12-26T18:34:33.556Z,18.68
2018-12-26T18:37:00.805Z,18.68
2018-12-26T18:39:28.118Z,18.69
2018-12-26T18:41:55.339Z,18.69
2018-12-26T18:44:22.556Z,18.70
2018-12-26T18:46:49.903Z,18.72
2018-12-26T18:49:17.121Z,18.72
2018-12-26T18:51:44.317Z,18.73
2018-12-26T18:54:11.561Z,18.71
2018-12-26T18:56:38.754Z,18.71
2018-12-26T18:59:06.029Z,18.71
2018-12-26T19:01:33.297Z,18.72
2018-12-26T19:04:00.477Z,18.73
2018-12-26T19:06:27.737Z,18.72
2018-12-26T19:08:54.898Z,18.73
2018-12-26T19:11:22.170Z,18.72
2018-12-26T19:13:49.384Z,18.73
2018-12-26T19:16:16.684Z,18.72
2018-12-26T19:18:43.913Z,18.70
2018-12-26T19:21:11.093Z,18.71
2018-12-26T19:23:38.362Z,18.73
2018-12-26T19:26:05.573Z,18.75
2018-12-26T19:28:32.847Z,18.74
2018-12-26T19:31:00.156Z,18.71
2018-12-26T19:33:27.361Z,18.71
2018-12-26T19:35:54.663Z,18.70
2018-12-26T19:38:21.925Z,18.72
2018-12-26T19:40:49.165Z,18.73
2018-12-26T19:43:16.439Z,18.71
2018-12-26T19:45:43.745Z,18.69
2018-12-26T19:48:11.000Z,18.71
2018-12-26T19:50:38.178Z,18.71
2018-12-26T19:53:05.445Z,18.70
2018-12-26T19:55:32.702Z,18.72
2018-12-26T19:57:59.937Z,18.73
2018-12-26T20:00:27.247Z,18.73
2018-12-26T20:02:54.437Z,18.72
2018-12-26T20:05:21.673Z,18.72
2018-12-26T20:07:48.869Z,18.71
2018-12-26T20:10:16.170Z,18.72
2018-12-26T20:12:43.407Z,18.74
2018-12-26T20:15:10.652Z,18.75
2018-12-26T20:17:37.931Z,18.73
2018-12-26T20:20:05.573Z,18.70
2018-12-26T20:22:32.823Z,18.66
2018-12-26T20:25:00.039Z,18.68
2018-12-26T20:27:27.428Z,18.67
2018-12-26T20:29:54.674Z,18.66
2018-12-26T20:32:41.324Z,18.59
2018-12-26T20:35:08.687Z,18.59
2018-12-26T20:37:35.878Z,18.57
2018-12-26T20:40:03.397Z,18.57
2018-12-26T20:42:30.631Z,18.55
2018-12-26T20:44:57.866Z,18.52
2018-12-26T20:47:25.119Z,18.51
2018-12-26T20:50:11.745Z,18.50
2018-12-26T20:52:39.008Z,18.50
2018-12-26T20:55:06.256Z,18.48
2018-12-26T20:57:52.931Z,18.46
2018-12-26T21:00:20.171Z,18.46
2018-12-26T21:03:06.778Z,18.42
2018-12-26T21:05:34.208Z,18.42
2018-12-26T21:08:01.469Z,18.42
2018-12-26T21:10:28.696Z,18.37
2018-12-26T21:12:56.014Z,18.39
2018-12-26T21:15:23.244Z,18.40
2018-12-26T21:17:50.478Z,18.40
2018-12-26T21:20:17.721Z,18.39
2018-12-26T21:22:44.950Z,18.41
2018-12-26T21:25:12.230Z,18.41
2018-12-26T21:27:58.877Z,18.39
2018-12-26T21:30:26.219Z,18.39
2018-12-26T21:32:53.447Z,18.38
2018-12-26T21:35:20.795Z,18.39
2018-12-26T21:37:48.157Z,18.39
2018-12-26T21:40:27.577Z,18.28
2018-12-26T21:42:54.906Z,18.28
2018-12-26T21:45:23.837Z,18.32
2018-12-26T21:47:51.276Z,18.32
2018-12-26T21:50:18.531Z,18.34
2018-12-26T21:52:45.810Z,18.31
2018-12-26T21:55:13.021Z,18.33
2018-12-26T21:57:59.685Z,18.30
2018-12-26T22:00:26.915Z,18.30
2018-12-26T22:02:54.205Z,18.30
2018-12-26T22:05:21.400Z,18.30
2018-12-26T22:08:08.021Z,18.27
2018-12-26T22:10:54.688Z,18.31
2018-12-26T22:13:21.970Z,18.31
2018-12-26T22:16:08.736Z,18.25
2018-12-26T22:18:35.970Z,18.25
2018-12-26T22:21:03.146Z,18.25
2018-12-26T22:23:30.387Z,18.25
2018-12-26T22:25:57.654Z,18.26
2018-12-26T22:28:24.924Z,18.27
2018-12-26T22:30:52.116Z,18.29
2018-12-26T22:33:19.353Z,18.30
2018-12-26T22:35:46.556Z,18.30
2018-12-26T22:38:13.733Z,18.28
2018-12-26T22:40:40.966Z,18.26
2018-12-26T22:43:20.344Z,18.28
2018-12-26T22:45:59.778Z,18.27
2018-12-26T22:48:39.676Z,18.27
2018-12-26T22:51:06.985Z,18.27
2018-12-26T22:53:53.617Z,18.25
2018-12-26T22:56:40.245Z,18.30
2018-12-26T22:59:26.848Z,18.30
2018-12-26T23:02:13.514Z,18.32
2018-12-26T23:04:40.710Z,18.32
2018-12-26T23:07:27.390Z,18.28
2018-12-26T23:09:54.623Z,18.28
2018-12-26T23:12:21.821Z,18.30
2018-12-26T23:14:49.052Z,18.31
2018-12-26T23:17:16.264Z,18.30
2018-12-26T23:19:43.495Z,18.31
2018-12-26T23:22:30.261Z,18.32
2018-12-26T23:25:16.894Z,18.34
2018-12-26T23:27:44.240Z,18.34
2018-12-26T23:30:30.870Z,18.32
2018-12-26T23:32:58.100Z,18.32
2018-12-26T23:35:25.367Z,18.31
2018-12-26T23:37:52.613Z,18.31
2018-12-26T23:40:19.889Z,18.27
2018-12-26T23:42:47.120Z,18.29
2018-12-26T23:45:14.386Z,18.30
2018-12-26T23:47:41.569Z,18.29
2018-12-26T23:50:08.770Z,18.30
2018-12-26T23:52:36.003Z,18.29
2018-12-26T23:55:03.608Z,18.27
2018-12-26T23:57:30.788Z,18.27
2018-12-26T23:59:58.025Z,18.30
